Time,TemperatureF,DewpointF,PressureIn,WindDirection,WindDirectionDegrees,WindSpeedMPH,WindSpeedGustMPH,Humidity,HourlyPrecipIn,Conditions,Clouds,dailyrainin,SoftwareType,DateUTC
2013-02-07 00:01:00,50.0,12.0,30.09,West,271,3.0,7.0,21,0.00,,,0.00,,2013-02-07 08:01:00,
2013-02-07 00:11:00,50.0,12.0,30.09,West,271,3.0,7.0,21,0.00,,,0.00,,2013-02-07 08:11:00,
2013-02-07 00:21:00,50.0,14.0,30.09,NW,310,2.0,5.0,23,0.00,,,0.00,,2013-02-07 08:21:00,
2013-02-07 00:31:00,49.0,14.0,30.09,North,0,0.0,2.0,24,0.00,,,0.00,,2013-02-07 08:31:00,
2013-02-07 00:41:00,49.0,14.0,30.09,North,0,0.0,2.0,24,0.00,,,0.00,,2013-02-07 08:41:00,
2013-02-07 00:52:00,47.0,16.0,30.09,ENE,73,2.0,5.0,29,0.00,,,0.00,,2013-02-07 08:52:00,
2013-02-07 01:01:00,44.0,20.0,30.09,North,0,0.0,3.0,38,0.00,,,0.00,,2013-02-07 09:01:00,
2013-02-07 01:11:00,44.0,21.0,30.09,North,0,0.0,0.0,40,0.00,,,0.00,,2013-02-07 09:11:00,
2013-02-07 01:21:00,44.0,21.0,30.09,North,0,0.0,0.0,40,0.00,,,0.00,,2013-02-07 09:21:00,
2013-02-07 01:31:00,42.0,19.0,30.09,North,0,0.0,3.0,39,0.00,,,0.00,,2013-02-07 09:31:00,
2013-02-07 01:41:00,42.0,19.0,30.09,North,0,0.0,3.0,39,0.00,,,0.00,,2013-02-07 09:41:00,
2013-02-07 01:51:00,42.0,18.0,30.09,East,81,2.0,4.0,38,0.00,,,0.00,,2013-02-07 09:51:00,
2013-02-07 02:01:00,41.0,15.0,30.09,North,349,2.0,5.0,35,0.00,,,0.00,,2013-02-07 10:01:00,
2013-02-07 02:11:00,41.0,15.0,30.09,North,349,2.0,5.0,35,0.00,,,0.00,,2013-02-07 10:11:00,
2013-02-07 02:21:00,42.0,17.0,30.09,NNW,348,2.0,6.0,36,0.00,,,0.00,,2013-02-07 10:21:00,
2013-02-07 02:31:00,41.0,16.0,30.08,NNW,348,3.0,5.0,36,0.00,,,0.00,,2013-02-07 10:31:00,
2013-02-07 02:41:00,41.0,16.0,30.08,NNW,348,3.0,5.0,36,0.00,,,0.00,,2013-02-07 10:41:00,
2013-02-07 02:51:00,40.0,15.0,30.08,NNW,344,2.0,4.0,35,0.00,,,0.00,,2013-02-07 10:51:00,
2013-02-07 03:01:00,38.0,16.0,30.08,NNW,342,3.0,5.0,40,0.00,,,0.00,,2013-02-07 11:01:00,
2013-02-07 03:11:00,38.0,16.0,30.08,NNW,342,3.0,5.0,40,0.00,,,0.00,,2013-02-07 11:11:00,
2013-02-07 03:22:00,39.0,16.0,30.08,NNW,341,4.0,6.0,39,0.00,,,0.00,,2013-02-07 11:22:00,
2013-02-07 03:32:00,39.0,18.0,30.07,NNW,338,4.0,6.0,42,0.00,,,0.00,,2013-02-07 11:32:00,
2013-02-07 03:43:00,39.0,18.0,30.07,NNW,338,4.0,6.0,42,0.00,,,0.00,,2013-02-07 11:43:00,
2013-02-07 03:52:00,39.0,15.0,30.07,North,0,0.0,5.0,37,0.00,,,0.00,,2013-02-07 11:52:00,
2013-02-07 04:01:00,39.0,14.0,30.06,NNW,338,2.0,4.0,36,0.00,,,0.00,,2013-02-07 12:01:00,
2013-02-07 04:11:00,39.0,14.0,30.06,NNW,338,2.0,4.0,36,0.00,,,0.00,,2013-02-07 12:11:00,
2013-02-07 04:21:00,38.0,15.0,30.07,NNW,338,3.0,4.0,39,0.00,,,0.00,,2013-02-07 12:21:00,
2013-02-07 04:32:00,38.0,12.0,30.07,North,0,0.0,3.0,34,0.00,,,0.00,,2013-02-07 12:32:00,
2013-02-07 04:41:00,38.0,12.0,30.07,North,0,0.0,3.0,34,0.00,,,0.00,,2013-02-07 12:41:00,
2013-02-07 04:52:00,39.0,13.0,30.07,NNW,338,3.0,4.0,34,0.00,,,0.00,,2013-02-07 12:52:00,
2013-02-07 05:02:00,38.0,13.0,30.07,NNW,331,1.0,3.0,36,0.00,,,0.00,,2013-02-07 13:02:00,
2013-02-07 05:11:00,38.0,13.0,30.07,NNW,331,1.0,3.0,36,0.00,,,0.00,,2013-02-07 13:11:00,
2013-02-07 05:21:00,37.0,14.0,30.07,NNW,331,2.0,4.0,38,0.00,,,0.00,,2013-02-07 13:21:00,
2013-02-07 05:31:00,37.0,16.0,30.08,NW,321,3.0,4.0,42,0.00,,,0.00,,2013-02-07 13:31:00,
2013-02-07 05:41:00,37.0,16.0,30.08,NW,321,3.0,4.0,42,0.00,,,0.00,,2013-02-07 13:41:00,
2013-02-07 05:51:00,37.0,17.0,30.08,NW,320,1.0,4.0,44,0.00,,,0.00,,2013-02-07 13:51:00,
2013-02-07 06:01:00,36.0,17.0,30.08,NW,321,4.0,5.0,46,0.00,,,0.00,,2013-02-07 14:01:00,
2013-02-07 06:11:00,36.0,17.0,30.08,NW,321,4.0,5.0,46,0.00,,,0.00,,2013-02-07 14:11:00,
2013-02-07 06:21:00,36.0,16.0,30.07,NW,321,2.0,5.0,43,0.00,,,0.00,,2013-02-07 14:21:00,
2013-02-07 06:31:00,36.0,16.0,30.08,NW,320,2.0,5.0,43,0.00,,,0.00,,2013-02-07 14:31:00,
2013-02-07 06:41:00,36.0,16.0,30.08,NW,320,2.0,5.0,43,0.00,,,0.00,,2013-02-07 14:41:00,
2013-02-07 06:52:00,35.0,14.0,30.08,NW,320,2.0,4.0,42,0.00,,,0.00,,2013-02-07 14:52:00,
2013-02-07 07:01:00,36.0,12.0,30.08,NW,321,2.0,5.0,37,0.00,,,0.00,,2013-02-07 15:01:00,
2013-02-07 07:11:00,36.0,12.0,30.08,NW,321,2.0,5.0,37,0.00,,,0.00,,2013-02-07 15:11:00,
2013-02-07 07:21:00,37.0,13.0,30.09,NW,321,2.0,4.0,36,0.00,,,0.00,,2013-02-07 15:21:00,
2013-02-07 07:31:00,37.0,16.0,30.09,NW,321,1.0,2.0,41,0.00,,,0.00,,2013-02-07 15:31:00,
2013-02-07 07:41:00,37.0,16.0,30.09,NW,321,1.0,2.0,41,0.00,,,0.00,,2013-02-07 15:41:00,
2013-02-07 07:52:00,38.0,19.0,30.09,North,0,0.0,1.0,45,0.00,,,0.00,,2013-02-07 15:52:00,
2013-02-07 08:01:00,42.0,22.0,30.09,North,0,0.0,0.0,44,0.00,,,0.00,,2013-02-07 16:01:00,
2013-02-07 08:21:00,43.0,22.0,30.09,North,0,0.0,0.0,43,0.00,,,0.00,,2013-02-07 16:21:00,
2013-02-07 08:31:00,46.0,24.0,30.10,North,0,0.0,1.0,41,0.00,,,0.00,,2013-02-07 16:31:00,
2013-02-07 08:41:00,46.0,24.0,30.10,North,0,0.0,1.0,41,0.00,,,0.00,,2013-02-07 16:41:00,
2013-02-07 08:52:00,46.0,24.0,30.10,North,0,0.0,0.0,41,0.00,,,0.00,,2013-02-07 16:52:00,
2013-02-07 09:01:00,48.0,24.0,30.09,North,0,0.0,3.0,39,0.00,,,0.00,,2013-02-07 17:01:00,
2013-02-07 09:11:00,49.0,25.0,30.09,NW,315,1.0,3.0,38,0.00,,,0.00,,2013-02-07 17:11:00,
2013-02-07 09:21:00,49.0,25.0,30.09,NW,315,1.0,3.0,38,0.00,,,0.00,,2013-02-07 17:21:00,
2013-02-07 09:31:00,50.0,24.0,30.09,North,0,0.0,4.0,36,0.00,,,0.00,,2013-02-07 17:31:00,
2013-02-07 09:41:00,50.0,24.0,30.09,North,0,0.0,4.0,36,0.00,,,0.00,,2013-02-07 17:41:00,
2013-02-07 09:52:00,51.0,23.0,30.09,North,0,0.0,4.0,33,0.00,,,0.00,,2013-02-07 17:52:00,
2013-02-07 10:01:00,52.0,22.0,30.09,South,173,2.0,5.0,30,0.00,,,0.00,,2013-02-07 18:01:00,
2013-02-07 10:11:00,52.0,22.0,30.09,South,173,2.0,5.0,30,0.00,,,0.00,,2013-02-07 18:11:00,
2013-02-07 10:22:00,53.0,22.0,30.09,South,176,1.0,5.0,30,0.00,,,0.00,,2013-02-07 18:22:00,
2013-02-07 10:31:00,53.0,23.0,30.08,SE,132,2.0,6.0,31,0.00,,,0.00,,2013-02-07 18:31:00,
2013-02-07 10:41:00,53.0,23.0,30.08,SE,132,2.0,6.0,31,0.00,,,0.00,,2013-02-07 18:41:00,
2013-02-07 10:51:00,53.0,23.0,30.08,SE,132,2.0,6.0,31,0.00,,,0.00,,2013-02-07 18:51:00,
2013-02-07 11:01:00,55.0,23.0,30.08,SSE,150,1.0,6.0,29,0.00,,,0.00,,2013-02-07 19:01:00,
2013-02-07 11:11:00,55.0,23.0,30.08,SSE,150,1.0,6.0,29,0.00,,,0.00,,2013-02-07 19:11:00,
2013-02-07 11:22:00,55.0,23.0,30.08,SSE,150,1.0,6.0,29,0.00,,,0.00,,2013-02-07 19:22:00,
2013-02-07 11:31:00,56.0,23.0,30.06,SE,124,3.0,7.0,27,0.00,,,0.00,,2013-02-07 19:31:00,
2013-02-07 11:41:00,56.0,23.0,30.06,SE,124,3.0,7.0,27,0.00,,,0.00,,2013-02-07 19:41:00,
2013-02-07 11:52:00,57.0,20.0,30.05,South,185,4.0,10.0,23,0.00,,,0.00,,2013-02-07 19:52:00,
2013-02-07 12:01:00,59.0,19.0,30.04,SW,232,6.0,11.0,21,0.00,,,0.00,,2013-02-07 20:01:00,
2013-02-07 12:11:00,59.0,19.0,30.04,SW,232,6.0,11.0,21,0.00,,,0.00,,2013-02-07 20:11:00,
2013-02-07 12:21:00,59.0,19.0,30.04,SW,232,6.0,11.0,21,0.00,,,0.00,,2013-02-07 20:21:00,
2013-02-07 12:31:00,61.0,23.0,30.01,SSW,206,6.0,16.0,23,0.00,,,0.00,,2013-02-07 20:31:00,
2013-02-07 12:41:00,61.0,23.0,30.01,SSW,206,6.0,16.0,23,0.00,,,0.00,,2013-02-07 20:41:00,
2013-02-07 12:52:00,61.0,24.0,30.00,SSW,201,9.0,17.0,24,0.00,,,0.00,,2013-02-07 20:52:00,
2013-02-07 13:01:00,63.0,28.0,29.98,South,191,9.0,20.0,26,0.00,,,0.00,,2013-02-07 21:01:00,
2013-02-07 13:11:00,63.0,28.0,29.98,South,191,9.0,20.0,26,0.00,,,0.00,,2013-02-07 21:11:00,
2013-02-07 13:21:00,63.0,29.0,29.98,SSW,201,11.0,18.0,27,0.00,,,0.00,,2013-02-07 21:21:00,
2013-02-07 13:31:00,63.0,28.0,29.96,SSW,201,14.0,21.0,26,0.00,,,0.00,,2013-02-07 21:31:00,
2013-02-07 13:41:00,63.0,28.0,29.96,SSW,201,14.0,21.0,26,0.00,,,0.00,,2013-02-07 21:41:00,
2013-02-07 13:51:00,63.0,28.0,29.96,SSW,194,13.0,23.0,26,0.00,,,0.00,,2013-02-07 21:51:00,
2013-02-07 14:01:00,63.0,29.0,29.95,SSW,197,15.0,22.0,27,0.00,,,0.00,,2013-02-07 22:01:00,
2013-02-07 14:11:00,63.0,29.0,29.95,SSW,197,15.0,22.0,27,0.00,,,0.00,,2013-02-07 22:11:00,
2013-02-07 14:21:00,63.0,28.0,29.95,SSW,209,16.0,25.0,26,0.00,,,0.00,,2013-02-07 22:21:00,
2013-02-07 14:31:00,62.0,28.0,29.93,SSW,209,18.0,27.0,27,0.00,,,0.00,,2013-02-07 22:31:00,
2013-02-07 14:42:00,62.0,28.0,29.93,SSW,209,18.0,27.0,27,0.00,,,0.00,,2013-02-07 22:42:00,
2013-02-07 14:51:00,62.0,30.0,29.93,SSW,209,17.0,27.0,30,0.00,,,0.00,,2013-02-07 22:51:00,
2013-02-07 15:01:00,58.0,34.0,29.93,WNW,295,15.0,25.0,41,0.00,,,0.00,,2013-02-07 23:01:00,
2013-02-07 15:11:00,58.0,34.0,29.93,WNW,295,15.0,25.0,41,0.00,,,0.00,,2013-02-07 23:11:00,
2013-02-07 15:21:00,55.0,34.0,29.94,WNW,288,15.0,24.0,45,0.00,,,0.00,,2013-02-07 23:21:00,
2013-02-07 15:31:00,53.0,34.0,29.94,WNW,283,15.0,20.0,48,0.00,,,0.00,,2013-02-07 23:31:00,
2013-02-07 15:41:00,53.0,34.0,29.94,WNW,283,15.0,20.0,48,0.00,,,0.00,,2013-02-07 23:41:00,
2013-02-07 15:52:00,52.0,34.0,29.94,WNW,289,16.0,24.0,50,0.00,,,0.00,,2013-02-07 23:52:00,
2013-02-07 16:01:00,51.0,34.0,29.94,WNW,294,17.0,26.0,53,0.00,,,0.00,,2013-02-08 00:01:00,
2013-02-07 16:11:00,51.0,34.0,29.94,WNW,294,17.0,26.0,53,0.00,,,0.00,,2013-02-08 00:11:00,
2013-02-07 16:21:00,48.0,34.0,29.95,WNW,291,16.0,33.0,59,0.00,,,0.00,,2013-02-08 00:21:00,
2013-02-07 16:31:00,46.0,34.0,29.95,WNW,299,24.0,36.0,63,0.00,,,0.00,,2013-02-08 00:31:00,
2013-02-07 16:41:00,46.0,34.0,29.95,WNW,299,24.0,36.0,63,0.00,,,0.00,,2013-02-08 00:41:00,
2013-02-07 16:52:00,46.0,34.0,29.95,WNW,299,24.0,36.0,63,0.00,,,0.00,,2013-02-08 00:52:00,
2013-02-07 17:01:00,45.0,33.0,29.96,WNW,297,19.0,30.0,63,0.00,,,0.00,,2013-02-08 01:01:00,
2013-02-07 17:11:00,45.0,33.0,29.96,WNW,297,19.0,30.0,63,0.00,,,0.00,,2013-02-08 01:11:00,
2013-02-07 17:21:00,45.0,31.0,29.96,WNW,296,18.0,31.0,58,0.00,,,0.00,,2013-02-08 01:21:00,
2013-02-07 17:31:00,44.0,30.0,29.96,WNW,299,21.0,30.0,58,0.00,,,0.00,,2013-02-08 01:31:00,
2013-02-07 17:41:00,44.0,30.0,29.96,WNW,299,21.0,30.0,58,0.00,,,0.00,,2013-02-08 01:41:00,
2013-02-07 17:51:00,44.0,30.0,29.95,WNW,290,16.0,27.0,57,0.00,,,0.00,,2013-02-08 01:51:00,
2013-02-07 18:01:00,44.0,31.0,29.96,WNW,297,16.0,27.0,60,0.00,,,0.00,,2013-02-08 02:01:00,
2013-02-07 18:11:00,44.0,31.0,29.96,WNW,297,16.0,27.0,60,0.00,,,0.00,,2013-02-08 02:11:00,
2013-02-07 18:21:00,44.0,31.0,29.96,WNW,291,16.0,25.0,61,0.00,,,0.00,,2013-02-08 02:21:00,
2013-02-07 18:31:00,43.0,31.0,29.95,WNW,301,19.0,30.0,63,0.00,,,0.00,,2013-02-08 02:31:00,
2013-02-07 18:42:00,43.0,31.0,29.95,WNW,301,19.0,30.0,63,0.00,,,0.00,,2013-02-08 02:42:00,
2013-02-07 18:52:00,43.0,32.0,29.95,WNW,297,16.0,33.0,64,0.00,,,0.00,,2013-02-08 02:52:00,
2013-02-07 19:01:00,43.0,32.0,29.94,WNW,297,14.0,32.0,64,0.00,,,0.00,,2013-02-08 03:01:00,
2013-02-07 19:11:00,43.0,32.0,29.94,WNW,297,14.0,32.0,64,0.00,,,0.00,,2013-02-08 03:11:00,
2013-02-07 19:22:00,44.0,32.0,29.94,WNW,295,14.0,30.0,63,0.00,,,0.00,,2013-02-08 03:22:00,
2013-02-07 19:31:00,44.0,31.0,29.94,WNW,292,18.0,29.0,61,0.00,,,0.00,,2013-02-08 03:31:00,
2013-02-07 19:41:00,44.0,31.0,29.94,WNW,292,18.0,29.0,61,0.00,,,0.00,,2013-02-08 03:41:00,
2013-02-07 19:51:00,44.0,31.0,29.93,WNW,294,10.0,25.0,60,0.00,,,0.00,,2013-02-08 03:51:00,
2013-02-07 20:01:00,44.0,29.0,29.93,West,279,15.0,25.0,55,0.00,,,0.00,,2013-02-08 04:01:00,
2013-02-07 20:11:00,44.0,29.0,29.93,West,279,15.0,25.0,55,0.00,,,0.00,,2013-02-08 04:11:00,
2013-02-07 20:21:00,44.0,27.0,29.93,WNW,294,14.0,23.0,51,0.00,,,0.00,,2013-02-08 04:21:00,
2013-02-07 20:31:00,44.0,27.0,29.91,SW,222,12.0,19.0,51,0.00,,,0.00,,2013-02-08 04:31:00,
2013-02-07 20:41:00,44.0,27.0,29.91,SW,222,12.0,19.0,51,0.00,,,0.00,,2013-02-08 04:41:00,
2013-02-07 20:51:00,43.0,28.0,29.90,West,268,8.0,20.0,54,0.00,,,0.00,,2013-02-08 04:51:00,
2013-02-07 21:01:00,43.0,29.0,29.90,West,281,8.0,22.0,58,0.00,,,0.00,,2013-02-08 05:01:00,
2013-02-07 21:11:00,43.0,29.0,29.90,West,281,8.0,22.0,58,0.00,,,0.00,,2013-02-08 05:11:00,
2013-02-07 21:21:00,43.0,30.0,29.91,West,265,12.0,23.0,60,0.00,,,0.00,,2013-02-08 05:21:00,
2013-02-07 21:31:00,43.0,30.0,29.90,WNW,295,16.0,30.0,61,0.00,,,0.00,,2013-02-08 05:31:00,
2013-02-07 21:41:00,43.0,30.0,29.90,WNW,295,16.0,30.0,61,0.00,,,0.00,,2013-02-08 05:41:00,
2013-02-07 21:52:00,43.0,30.0,29.90,West,280,15.0,22.0,60,0.00,,,0.00,,2013-02-08 05:52:00,
2013-02-07 22:01:00,42.0,30.0,29.91,West,270,13.0,26.0,61,0.00,,,0.00,,2013-02-08 06:01:00,
2013-02-07 22:11:00,42.0,30.0,29.91,West,270,13.0,26.0,61,0.00,,,0.00,,2013-02-08 06:11:00,
2013-02-07 22:21:00,42.0,30.0,29.90,WSW,252,12.0,22.0,61,0.00,,,0.00,,2013-02-08 06:21:00,
2013-02-07 22:31:00,42.0,31.0,29.90,WNW,283,10.0,17.0,64,0.00,,,0.00,,2013-02-08 06:31:00,
2013-02-07 22:41:00,42.0,31.0,29.90,WNW,283,10.0,17.0,64,0.00,,,0.00,,2013-02-08 06:41:00,
2013-02-07 22:51:00,42.0,31.0,29.90,West,259,9.0,19.0,64,0.00,,,0.00,,2013-02-08 06:51:00,
2013-02-07 23:01:00,42.0,31.0,29.90,WSW,258,10.0,19.0,65,0.00,,,0.00,,2013-02-08 07:01:00,
2013-02-07 23:11:00,41.0,30.0,29.90,WSW,249,8.0,18.0,65,0.00,,,0.00,,2013-02-08 07:11:00,
2013-02-07 23:21:00,41.0,30.0,29.90,WSW,249,8.0,18.0,65,0.00,,,0.00,,2013-02-08 07:21:00,
2013-02-07 23:31:00,41.0,31.0,29.90,WSW,249,7.0,15.0,66,0.00,,,0.00,,2013-02-08 07:31:00,
2013-02-07 23:41:00,41.0,31.0,29.90,West,266,14.0,22.0,67,0.00,,,0.00,,2013-02-08 07:41:00,
2013-02-07 23:51:00,41.0,31.0,29.90,West,266,14.0,22.0,67,0.00,,,0.00,,2013-02-08 07:51:00,